Time;durP1;ratioP1;P1;durP2;ratioP2;P2;SDS_P1;SDS_P2;PMS_P1;PMS_P2;Temp;Humidity;BMP_temperature;BMP_pressure;BME280_temperature;BME280_humidity;BME280_pressure;Samples;Min_cycle;Max_cycle;Signal;HPM_P1;HPM_P2
2022/09/03 00:00:18;;;;;;;5.25;1.00;;;;;;;17.51;45.89;100875.13;5008336;28;20041;-78
2022/09/03 00:02:49;;;;;;;3.10;0.93;;;;;;;17.43;46.06;100877.94;4992865;28;20088;-77
2022/09/03 00:05:35;;;;;;;3.00;1.00;;;;;;;17.44;46.40;100878.75;4988159;28;20388;-78
2022/09/03 00:08:19;;;;;;;3.00;0.90;;;;;;;17.36;46.56;100876.31;5019763;28;20037;-78
2022/09/03 00:10:55;;;;;;;4.65;1.10;;;;;;;17.34;46.19;100880.97;4988690;28;20403;-78
2022/09/03 00:13:32;;;;;;;2.65;1.15;;;;;;;17.30;46.49;100878.72;4987979;28;20045;-78
2022/09/03 00:15:59;;;;;;;2.03;0.90;;;;;;;17.25;46.54;100873.28;4990138;28;20038;-77
2022/09/03 00:18:31;;;;;;;1.90;1.00;;;;;;;17.25;46.52;100875.06;4999668;28;20034;-77
2022/09/03 00:21:07;;;;;;;1.42;0.93;;;;;;;17.30;46.45;100875.31;4997665;28;20154;-77
2022/09/03 00:23:37;;;;;;;3.90;1.25;;;;;;;17.22;46.61;100875.50;5011304;28;20038;-78
2022/09/03 00:26:11;;;;;;;1.95;1.10;;;;;;;17.17;46.60;100870.84;5008145;28;20030;-77
2022/09/03 00:29:18;;;;;;;2.53;1.15;;;;;;;17.17;47.44;100875.28;5011606;28;20578;-78
2022/09/03 00:31:50;;;;;;;1.92;1.08;;;;;;;17.18;47.66;100872.47;4997256;28;20050;-77
2022/09/03 00:34:16;;;;;;;1.45;0.90;;;;;;;17.14;47.97;100873.88;5015227;28;20728;-77
2022/09/03 00:36:44;;;;;;;3.58;1.33;;;;;;;17.11;48.51;100869.00;5021208;28;20040;-77
2022/09/03 00:39:14;;;;;;;1.73;0.90;;;;;;;17.06;48.52;100872.19;4998013;28;20038;-78
2022/09/03 00:41:56;;;;;;;2.20;0.95;;;;;;;17.02;48.82;100873.59;5015522;28;20073;-77
2022/09/03 00:44:21;;;;;;;2.45;1.00;;;;;;;16.98;49.14;100872.38;4996262;28;20046;-77
2022/09/03 00:46:59;;;;;;;1.83;0.98;;;;;;;16.95;49.34;100875.38;5005498;28;20406;-76
2022/09/03 00:49:53;;;;;;;1.45;1.02;;;;;;;16.90;49.64;100878.59;5004272;28;20034;-77
2022/09/03 00:52:47;;;;;;;2.85;0.80;;;;;;;16.86;49.88;100877.38;5027142;28;20394;-77
2022/09/03 00:55:26;;;;;;;4.10;0.95;;;;;;;16.82;50.11;100883.16;4998902;28;20172;-77
2022/09/03 00:58:03;;;;;;;2.33;0.98;;;;;;;16.78;50.17;100876.72;5002360;28;20187;-77
2022/09/03 01:00:29;;;;;;;2.40;0.70;;;;;;;16.72;50.37;100876.47;5001878;28;20129;-76
2022/09/03 01:03:11;;;;;;;2.22;0.90;;;;;;;16.69;50.53;100882.13;4995004;28;20149;-77
2022/09/03 01:05:51;;;;;;;4.90;1.10;;;;;;;16.61;50.90;100877.03;5007164;28;20487;-77
2022/09/03 01:08:35;;;;;;;1.50;0.90;;;;;;;16.56;51.19;100876.81;5004453;28;20046;-77
2022/09/03 01:11:27;;;;;;;2.55;0.80;;;;;;;16.54;51.05;100874.38;5001858;28;20037;-76
2022/09/03 01:14:01;;;;;;;3.58;0.93;;;;;;;16.51;51.29;100866.09;5009727;28;20035;-77
2022/09/03 01:17:02;;;;;;;2.50;1.27;;;;;;;16.45;51.77;100867.69;4998709;28;20056;-77
2022/09/03 01:19:39;;;;;;;2.47;1.30;;;;;;;16.40;51.81;100872.69;5026313;28;20062;-77
2022/09/03 01:22:37;;;;;;;4.70;1.20;;;;;;;16.39;51.81;100875.50;5007753;28;20038;-77
2022/09/03 01:25:30;;;;;;;1.77;1.15;;;;;;;16.35;52.29;100868.03;4996965;28;20134;-77
2022/09/03 01:28:31;;;;;;;2.92;1.20;;;;;;;16.35;52.26;100872.47;5028988;28;20083;-77
2022/09/03 01:31:12;;;;;;;1.88;0.90;;;;;;;16.34;52.57;100871.66;4999479;28;20038;-77
2022/09/03 01:33:45;;;;;;;3.60;1.13;;;;;;;16.31;52.73;100871.22;4992138;28;20065;-77
2022/09/03 01:36:17;;;;;;;2.40;0.70;;;;;;;16.25;52.95;100869.38;5005014;28;20035;-77
2022/09/03 01:38:52;;;;;;;2.42;1.05;;;;;;;16.13;53.31;100867.28;5008864;28;20420;-77
2022/09/03 01:44:26;;;;;;;3.22;1.10;;;;;;;15.96;53.87;100865.97;4999023;28;20033;-77
2022/09/03 01:47:11;;;;;;;5.30;1.10;;;;;;;15.89;53.08;100873.75;4998767;28;20121;-77
2022/09/03 01:49:56;;;;;;;7.47;1.23;;;;;;;15.81;53.59;100879.13;4997633;28;20042;-77
2022/09/03 01:52:42;;;;;;;2.28;1.20;;;;;;;15.74;54.21;100876.44;4994112;28;20044;-77
2022/09/03 01:55:55;;;;;;;3.35;1.10;;;;;;;15.72;54.53;100874.97;5008170;28;20094;-77
2022/09/03 01:58:41;;;;;;;1.88;0.98;;;;;;;15.71;54.86;100873.38;4995272;28;20675;-77
2022/09/03 02:01:42;;;;;;;1.05;0.80;;;;;;;15.68;54.96;100871.94;4994744;28;20037;-77
2022/09/03 02:04:22;;;;;;;1.77;0.98;;;;;;;15.64;55.10;100875.94;4992163;28;20526;-78
2022/09/03 02:06:49;;;;;;;4.40;1.00;;;;;;;15.59;55.23;100873.06;5000277;28;20088;-77
2022/09/03 02:09:16;;;;;;;3.30;1.35;;;;;;;15.55;55.57;100867.38;4990941;28;20043;-76
2022/09/03 02:11:45;;;;;;;3.20;0.95;;;;;;;15.48;55.90;100874.38;5014564;28;20038;-77
2022/09/03 02:14:12;;;;;;;3.67;0.90;;;;;;;15.42;56.14;100869.06;4999356;28;20210;-77
2022/09/03 02:16:38;;;;;;;3.47;1.05;;;;;;;15.37;56.24;100869.66;4996059;28;20034;-76
2022/09/03 02:19:09;;;;;;;3.05;1.10;;;;;;;15.31;56.34;100875.59;4999524;28;20110;-77
2022/09/03 02:21:38;;;;;;;2.35;1.10;;;;;;;15.27;56.44;100872.53;4999718;28;20404;-77
2022/09/03 02:24:06;;;;;;;4.97;1.10;;;;;;;15.22;56.69;100874.91;4997749;28;20487;-77
2022/09/03 02:26:32;;;;;;;4.00;1.15;;;;;;;15.18;56.83;100871.88;4993636;28;20045;-77
2022/09/03 02:29:00;;;;;;;1.58;0.90;;;;;;;15.15;56.98;100867.00;4993785;28;20394;-77
2022/09/03 02:31:27;;;;;;;2.20;1.42;;;;;;;15.11;57.28;100868.38;4997115;28;20076;-77
2022/09/03 02:33:55;;;;;;;1.25;0.88;;;;;;;15.08;57.37;100873.94;5006800;28;20030;-77
2022/09/03 02:36:26;;;;;;;2.25;1.05;;;;;;;15.09;57.22;100866.94;5009114;28;20049;-77
2022/09/03 02:38:51;;;;;;;1.70;1.05;;;;;;;15.08;57.36;100873.13;4990050;28;20038;-77
2022/09/03 02:41:17;;;;;;;4.35;1.15;;;;;;;15.08;57.36;100868.72;4980745;28;20042;-76
2022/09/03 02:43:53;;;;;;;2.45;0.90;;;;;;;15.06;57.88;100862.06;4994755;28;20045;-77
2022/09/03 02:46:23;;;;;;;2.47;0.98;;;;;;;15.07;57.53;100872.34;5005555;28;20615;-77
2022/09/03 02:48:48;;;;;;;1.75;1.17;;;;;;;15.08;57.57;100873.94;5008844;28;20035;-77
2022/09/03 02:51:14;;;;;;;3.92;1.25;;;;;;;15.03;57.74;100862.44;4993661;28;20160;-77
2022/09/03 02:53:39;;;;;;;4.07;1.42;;;;;;;14.93;57.91;100865.34;4976307;28;20053;-77
2022/09/03 02:56:05;;;;;;;3.42;1.20;;;;;;;14.83;58.42;100867.44;5001883;28;20041;-77
2022/09/03 02:58:30;;;;;;;2.17;1.17;;;;;;;14.72;58.69;100866.88;4994951;28;20034;-77
2022/09/03 03:00:57;;;;;;;2.35;1.13;;;;;;;14.63;59.02;100867.97;4989258;28;20069;-77
2022/09/03 03:03:22;;;;;;;2.00;0.90;;;;;;;14.55;59.29;100865.44;5006585;28;20033;-77
2022/09/03 03:05:57;;;;;;;2.38;1.20;;;;;;;14.39;59.71;100872.47;5003490;28;21348;-77
2022/09/03 03:08:26;;;;;;;2.53;1.13;;;;;;;14.33;60.06;100869.75;5023603;28;20104;-77
2022/09/03 03:10:57;;;;;;;6.55;1.40;;;;;;;14.32;59.93;100868.13;4989066;28;20041;-77
2022/09/03 03:13:23;;;;;;;2.20;1.10;;;;;;;14.30;60.01;100870.91;5022524;28;20068;-77
2022/09/03 03:15:49;;;;;;;3.45;1.17;;;;;;;14.33;59.93;100869.75;4991167;28;20042;-76
2022/09/03 03:18:16;;;;;;;4.38;1.40;;;;;;;14.39;59.78;100866.41;4991277;28;20049;-77
2022/09/03 03:20:42;;;;;;;3.42;1.20;;;;;;;14.45;59.48;100867.50;5003299;28;20143;-77
2022/09/03 03:23:08;;;;;;;3.42;1.08;;;;;;;14.49;59.69;100861.75;4989494;28;20022;-76
2022/09/03 03:25:36;;;;;;;2.38;1.10;;;;;;;14.52;59.48;100857.97;4989359;28;20025;-77
2022/09/03 03:28:03;;;;;;;4.55;1.10;;;;;;;14.53;59.61;100849.97;4988235;28;20039;-77
2022/09/03 03:30:30;;;;;;;2.83;0.90;;;;;;;14.57;59.20;100855.66;4989179;28;20026;-77
2022/09/03 03:32:55;;;;;;;2.08;1.10;;;;;;;14.58;58.82;100855.47;4990904;28;20030;-76
2022/09/03 03:35:22;;;;;;;2.75;1.20;;;;;;;14.60;58.65;100860.53;4992618;28;20395;-76
2022/09/03 03:37:47;;;;;;;1.00;0.80;;;;;;;14.58;58.64;100852.88;5022522;28;20229;-77
2022/09/03 03:40:14;;;;;;;3.22;1.20;;;;;;;14.57;58.65;100850.44;4994448;28;20100;-77
2022/09/03 03:42:40;;;;;;;2.20;1.17;;;;;;;14.54;58.96;100854.19;4992174;28;20104;-76
2022/09/03 03:45:06;;;;;;;2.45;1.25;;;;;;;14.54;58.90;100859.41;4993416;28;20498;-77
2022/09/03 03:47:32;;;;;;;2.80;1.10;;;;;;;14.54;58.95;100856.81;4998135;28;20037;-77
2022/09/03 03:49:58;;;;;;;1.73;1.02;;;;;;;14.53;59.28;100851.75;5023633;28;20095;-76
2022/09/03 03:52:25;;;;;;;2.58;1.00;;;;;;;14.52;59.46;100852.75;4996303;28;20657;-77
2022/09/03 03:54:52;;;;;;;4.00;1.58;;;;;;;14.48;59.54;100849.69;4994820;28;20487;-77
2022/09/03 03:57:18;;;;;;;2.72;1.20;;;;;;;14.46;59.55;100854.28;5015647;28;20161;-77
2022/09/03 03:59:45;;;;;;;1.85;1.10;;;;;;;14.42;59.98;100853.00;5029977;28;20044;-76
2022/09/03 04:02:11;;;;;;;2.63;1.13;;;;;;;14.36;60.40;100856.34;5004800;28;20053;-77
2022/09/03 04:04:36;;;;;;;3.40;1.10;;;;;;;14.35;60.34;100857.31;5000783;28;20456;-77
2022/09/03 04:07:01;;;;;;;3.55;1.30;;;;;;;14.32;60.35;100858.50;4996235;28;20861;-77
2022/09/03 04:09:27;;;;;;;2.40;1.20;;;;;;;14.28;60.63;100851.19;4997051;28;20152;-77
2022/09/03 04:11:52;;;;;;;3.00;1.30;;;;;;;14.19;61.22;100850.50;4995859;28;20030;-77
2022/09/03 04:14:18;;;;;;;2.05;1.27;;;;;;;14.09;61.77;100848.16;5025745;28;20584;-77
2022/09/03 04:16:46;;;;;;;3.03;1.50;;;;;;;13.98;62.47;100856.41;5007335;28;20026;-77
2022/09/03 04:19:12;;;;;;;3.25;1.45;;;;;;;13.87;62.79;100854.22;5003671;28;20031;-76
2022/09/03 04:21:38;;;;;;;6.43;1.30;;;;;;;13.80;63.37;100847.06;4998277;28;20030;-76
2022/09/03 04:24:04;;;;;;;2.50;1.25;;;;;;;13.72;63.40;100849.75;5001346;28;20041;-76
2022/09/03 04:26:32;;;;;;;4.50;1.75;;;;;;;13.65;63.52;100845.44;4994215;28;20121;-77
2022/09/03 04:29:08;;;;;;;3.03;1.33;;;;;;;13.62;63.53;100842.19;4995392;28;20040;-76
2022/09/03 04:31:35;;;;;;;3.50;1.30;;;;;;;13.59;63.52;100844.31;5023646;28;20053;-77
2022/09/03 04:34:00;;;;;;;1.92;1.00;;;;;;;13.57;63.45;100841.91;4999539;28;20034;-77
2022/09/03 04:36:29;;;;;;;2.00;1.05;;;;;;;13.59;63.57;100845.13;5002480;28;20038;-77
2022/09/03 04:38:57;;;;;;;2.47;1.40;;;;;;;13.64;63.27;100849.84;4999635;28;20603;-77
2022/09/03 04:41:27;;;;;;;2.88;1.35;;;;;;;13.69;62.91;100844.88;4996633;28;20176;-77
2022/09/03 04:43:55;;;;;;;2.17;1.35;;;;;;;13.73;62.97;100846.19;5000108;28;20057;-77
2022/09/03 04:46:24;;;;;;;5.13;1.40;;;;;;;13.76;62.83;100847.63;4995453;28;20581;-77
2022/09/03 04:48:52;;;;;;;1.73;1.30;;;;;;;13.77;63.20;100851.84;5011848;28;20380;-77
2022/09/03 04:51:20;;;;;;;5.20;1.83;;;;;;;13.78;63.21;100854.25;4982144;28;20050;-77
2022/09/03 04:53:48;;;;;;;2.20;1.40;;;;;;;13.76;63.47;100851.03;5002384;28;20105;-77
2022/09/03 04:56:19;;;;;;;2.17;1.30;;;;;;;13.73;63.85;100859.22;4999878;28;20478;-77
2022/09/03 04:58:46;;;;;;;2.72;1.52;;;;;;;13.70;63.91;100859.56;5000013;28;20030;-77
2022/09/03 05:01:17;;;;;;;4.50;1.88;;;;;;;13.68;63.96;100856.31;4993063;28;20032;-77
2022/09/03 05:03:43;;;;;;;3.05;1.52;;;;;;;13.70;63.81;100854.34;5000421;28;20117;-77
2022/09/03 05:06:09;;;;;;;7.72;2.33;;;;;;;13.70;63.46;100856.16;4998140;28;20034;-76
2022/09/03 05:08:36;;;;;;;7.47;2.50;;;;;;;13.70;63.62;100846.53;5023063;28;20041;-76
2022/09/03 05:11:06;;;;;;;6.30;1.13;;;;;;;13.73;63.25;100848.78;5000298;28;20064;-77
2022/09/03 05:13:33;;;;;;;5.13;1.08;;;;;;;13.76;63.12;100845.00;4996376;28;20041;-77
2022/09/03 05:16:05;;;;;;;2.47;1.08;;;;;;;13.79;62.97;100840.25;5000802;28;20030;-77
2022/09/03 05:18:31;;;;;;;1.88;0.90;;;;;;;13.85;62.96;100843.97;4986004;28;20038;-76
2022/09/03 05:21:00;;;;;;;2.55;1.20;;;;;;;13.87;62.60;100855.00;4994465;28;20030;-77
2022/09/03 05:23:26;;;;;;;2.63;1.10;;;;;;;13.90;62.72;100851.25;4997560;28;20033;-77
2022/09/03 05:26:05;;;;;;;2.33;1.00;;;;;;;13.92;62.93;100851.88;5004588;28;20061;-77
2022/09/03 05:28:30;;;;;;;1.98;1.00;;;;;;;13.95;62.78;100854.94;4999136;28;20049;-77
2022/09/03 05:31:11;;;;;;;4.78;0.93;;;;;;;13.98;62.21;100853.78;4995601;28;20033;-77
2022/09/03 05:33:44;;;;;;;1.52;0.95;;;;;;;14.01;62.48;100856.84;4990911;28;20026;-77
2022/09/03 05:36:12;;;;;;;2.10;1.30;;;;;;;14.04;62.55;100850.47;4997937;28;20173;-77
2022/09/03 05:38:38;;;;;;;1.33;1.02;;;;;;;14.07;62.88;100851.91;4994586;28;20031;-77
2022/09/03 05:41:06;;;;;;;4.85;1.17;;;;;;;14.15;62.07;100852.63;5017867;28;20038;-77
2022/09/03 05:43:32;;;;;;;2.28;0.90;;;;;;;14.15;62.08;100855.25;4995753;28;20034;-77
2022/09/03 05:45:59;;;;;;;4.63;1.00;;;;;;;14.17;62.27;100850.66;4994349;28;20030;-77
2022/09/03 05:48:26;;;;;;;2.10;1.10;;;;;;;14.24;61.92;100856.00;4994121;28;20124;-77
2022/09/03 05:51:06;;;;;;;2.28;1.13;;;;;;;14.28;61.39;100859.84;5006359;28;20385;-76
2022/09/03 05:53:34;;;;;;;2.20;1.08;;;;;;;14.47;61.13;100852.50;4997954;28;20045;-77
2022/09/03 05:56:01;;;;;;;4.07;1.00;;;;;;;14.47;61.10;100855.09;4999194;28;20125;-77
2022/09/03 05:58:37;;;;;;;3.70;1.10;;;;;;;14.58;60.70;100859.91;4995728;28;20408;-77
2022/09/03 06:01:11;;;;;;;7.07;1.23;;;;;;;14.64;60.67;100850.53;5009097;28;20491;-77
2022/09/03 06:03:37;;;;;;;3.63;1.83;;;;;;;14.80;59.83;100855.53;4998026;28;20039;-77
2022/09/03 06:06:03;;;;;;;4.28;0.90;;;;;;;15.06;59.36;100847.22;5000589;28;20063;-77
2022/09/03 06:08:29;;;;;;;3.53;1.25;;;;;;;15.12;58.89;100853.50;4995752;28;20038;-77
2022/09/03 06:10:59;;;;;;;4.20;1.17;;;;;;;15.17;58.88;100851.16;5011766;28;20041;-77
2022/09/03 06:13:24;;;;;;;2.22;0.90;;;;;;;15.46;57.65;100858.06;5000012;28;20030;-78
2022/09/03 06:15:55;;;;;;;4.85;1.10;;;;;;;15.42;58.33;100861.25;4997798;28;20568;-77
2022/09/03 06:18:20;;;;;;;3.60;0.93;;;;;;;15.49;57.99;100855.09;5023057;28;20035;-77
2022/09/03 06:20:53;;;;;;;5.40;1.10;;;;;;;15.45;58.14;100859.06;4994419;28;20077;-77
2022/09/03 06:23:19;;;;;;;6.25;1.02;;;;;;;15.60;58.31;100859.00;4995088;28;20041;-76
2022/09/03 06:25:44;;;;;;;18.05;2.67;;;;;;;15.67;57.27;100853.81;5000532;28;20454;-77
2022/09/03 06:28:10;;;;;;;3.70;1.23;;;;;;;15.84;56.46;100849.16;5002362;28;20506;-77
2022/09/03 06:30:36;;;;;;;2.88;1.10;;;;;;;15.95;56.28;100839.00;4995021;28;20037;-78
2022/09/03 06:33:01;;;;;;;2.33;1.20;;;;;;;16.03;55.44;100850.31;5010602;28;20084;-78
2022/09/03 06:35:27;;;;;;;4.00;1.08;;;;;;;16.21;55.18;100852.44;4994553;28;20503;-77
2022/09/03 06:37:52;;;;;;;2.00;1.40;;;;;;;16.19;55.75;100854.47;5000117;28;20505;-76
2022/09/03 06:40:21;;;;;;;8.23;1.00;;;;;;;16.42;55.55;100856.78;5024746;28;20033;-77
2022/09/03 06:42:58;;;;;;;3.17;1.02;;;;;;;16.51;54.88;100848.59;4995835;28;20029;-78
2022/09/03 06:45:24;;;;;;;10.88;3.55;;;;;;;16.75;53.72;100856.97;5009014;28;20034;-76
2022/09/03 06:47:49;;;;;;;3.10;1.40;;;;;;;16.85;53.66;100854.00;5002102;28;20808;-75
2022/09/03 06:50:17;;;;;;;3.35;1.10;;;;;;;17.10;53.14;100851.66;5011595;28;20041;-76
2022/09/03 06:52:42;;;;;;;3.72;0.93;;;;;;;17.39;51.29;100847.91;5001522;28;20030;-75
2022/09/03 06:55:08;;;;;;;3.60;0.98;;;;;;;17.68;50.89;100857.19;5002590;28;20084;-76
2022/09/03 06:57:33;;;;;;;3.70;1.33;;;;;;;18.16;49.53;100848.31;5002079;28;20037;-75
2022/09/03 06:59:59;;;;;;;2.00;0.93;;;;;;;18.82;48.15;100849.97;4999017;28;20417;-77
2022/09/03 07:02:25;;;;;;;1.23;0.88;;;;;;;19.62;46.67;100841.56;5027448;28;20034;-77
2022/09/03 07:04:50;;;;;;;6.85;1.08;;;;;;;20.06;45.03;100836.34;4996090;28;20073;-77
2022/09/03 07:07:16;;;;;;;1.73;0.82;;;;;;;20.66;44.24;100848.88;4994509;28;20034;-79
2022/09/03 07:09:41;;;;;;;2.35;0.70;;;;;;;20.78;42.98;100849.75;5010298;28;20490;-74
2022/09/03 07:12:09;;;;;;;3.58;1.20;;;;;;;20.97;42.83;100844.44;4997621;28;20046;-75
2022/09/03 07:14:35;;;;;;;5.93;1.40;;;;;;;21.38;41.75;100842.84;5000439;28;20037;-76
2022/09/03 07:17:00;;;;;;;4.55;0.70;;;;;;;21.08;41.78;100845.47;4998374;28;20034;-76
2022/09/03 07:19:26;;;;;;;1.65;0.82;;;;;;;21.08;41.48;100842.84;5002475;28;20475;-76
2022/09/03 07:21:51;;;;;;;1.90;0.63;;;;;;;20.87;41.51;100849.41;4996190;28;20034;-74
2022/09/03 07:24:18;;;;;;;2.38;1.00;;;;;;;20.77;42.09;100844.69;4996573;28;20053;-74
2022/09/03 07:26:45;;;;;;;6.63;1.55;;;;;;;21.16;41.59;100845.19;4995493;28;20038;-75
2022/09/03 07:29:11;;;;;;;7.45;0.90;;;;;;;21.42;41.33;100849.25;4999226;28;20446;-76
2022/09/03 07:31:41;;;;;;;3.38;1.05;;;;;;;22.08;40.28;100852.63;4998923;28;20077;-76
2022/09/03 07:34:10;;;;;;;1.38;0.80;;;;;;;21.94;39.95;100853.91;5003393;28;20035;-74
2022/09/03 07:36:45;;;;;;;6.95;0.98;;;;;;;21.57;40.73;100843.56;5008473;28;20509;-72
2022/09/03 07:39:13;;;;;;;3.80;1.00;;;;;;;22.11;39.40;100840.81;4996740;28;20702;-73
2022/09/03 07:41:42;;;;;;;5.47;1.17;;;;;;;22.24;39.85;100837.13;5014384;28;20034;-74
2022/09/03 07:44:08;;;;;;;1.00;0.85;;;;;;;22.24;39.63;100842.41;4998603;28;20041;-74
2022/09/03 07:46:36;;;;;;;2.83;0.77;;;;;;;22.45;39.44;100836.53;4998401;28;20042;-75
2022/09/03 07:49:03;;;;;;;3.88;1.00;;;;;;;22.05;39.28;100844.38;4995706;28;20038;-74
2022/09/03 07:51:32;;;;;;;1.25;0.80;;;;;;;22.54;39.28;100843.03;5003967;28;20048;-75
2022/09/03 07:54:01;;;;;;;4.53;0.80;;;;;;;22.35;39.20;100849.53;5029253;28;20069;-72
2022/09/03 07:56:29;;;;;;;4.57;1.00;;;;;;;22.47;38.92;100846.84;5000661;28;20030;-74
2022/09/03 07:58:55;;;;;;;4.32;0.82;;;;;;;22.67;38.89;100839.31;4997234;28;20045;-75
2022/09/03 08:01:23;;;;;;;1.35;0.80;;;;;;;22.43;39.13;100843.88;5004953;28;20033;-75
2022/09/03 08:03:51;;;;;;;3.15;0.90;;;;;;;22.79;38.34;100849.03;5018309;28;20551;-73
2022/09/03 08:06:23;;;;;;;7.32;0.80;;;;;;;23.31;37.52;100844.44;5010158;28;20029;-75
2022/09/03 08:08:55;;;;;;;3.17;0.95;;;;;;;23.06;38.12;100852.75;4999681;28;20034;-75
2022/09/03 08:11:21;;;;;;;1.90;0.80;;;;;;;22.83;38.15;100855.47;5001549;28;20394;-74
2022/09/03 08:14:01;;;;;;;2.08;0.90;;;;;;;23.30;37.94;100865.84;4998681;28;20030;-75
2022/09/03 08:16:32;;;;;;;1.30;0.90;;;;;;;23.97;37.54;100856.31;4999327;28;20538;-74
2022/09/03 08:18:58;;;;;;;6.00;0.70;;;;;;;23.88;36.55;100856.75;5001455;28;20036;-75
2022/09/03 08:21:25;;;;;;;4.93;1.45;;;;;;;24.43;36.38;100849.75;5008608;28;20399;-75
2022/09/03 08:23:53;;;;;;;1.40;0.85;;;;;;;24.61;35.83;100859.25;5005231;28;20048;-76
2022/09/03 08:26:20;;;;;;;1.70;0.85;;;;;;;24.60;35.88;100855.00;5004852;28;20115;-77
2022/09/03 08:28:46;;;;;;;2.08;0.80;;;;;;;24.47;35.79;100860.66;5005384;28;20077;-74
2022/09/03 08:31:11;;;;;;;3.53;0.80;;;;;;;24.78;35.58;100855.72;5008115;28;20708;-73
2022/09/03 08:33:39;;;;;;;1.15;0.80;;;;;;;25.35;35.01;100852.56;5024785;28;20108;-76
2022/09/03 08:36:17;;;;;;;2.08;1.00;;;;;;;24.83;35.38;100847.84;5000217;28;20049;-74
2022/09/03 08:38:45;;;;;;;2.50;0.85;;;;;;;25.28;35.08;100844.03;5013954;28;20029;-75
2022/09/03 08:41:15;;;;;;;3.08;0.77;;;;;;;25.77;34.21;100845.69;5003712;28;20045;-75
2022/09/03 08:44:19;;;;;;;3.15;1.08;;;;;;;25.90;34.56;100855.03;5007570;28;20070;-76
2022/09/03 08:47:19;;;;;;;5.20;1.00;;;;;;;25.48;34.67;100851.31;4999306;28;20747;-76
2022/09/03 08:50:18;;;;;;;3.15;1.00;;;;;;;25.05;34.97;100853.06;5003576;28;20049;-75
2022/09/03 08:52:49;;;;;;;2.33;0.93;;;;;;;25.51;34.56;100856.13;5002946;28;20033;-74
2022/09/03 08:55:30;;;;;;;1.63;0.90;;;;;;;25.17;35.07;100850.25;5001901;28;20593;-76
2022/09/03 08:58:12;;;;;;;6.45;1.00;;;;;;;24.82;35.75;100854.97;5001059;28;20040;-79
2022/09/03 09:01:00;;;;;;;4.25;1.25;;;;;;;24.66;36.13;100861.97;5006003;28;20475;-76
2022/09/03 09:04:02;;;;;;;1.52;0.90;;;;;;;24.52;36.20;100859.94;5001519;28;20041;-75
2022/09/03 09:06:38;;;;;;;1.50;1.00;;;;;;;24.81;36.55;100855.25;5003929;28;20026;-74
2022/09/03 09:09:33;;;;;;;3.25;1.00;;;;;;;25.16;36.04;100853.97;5003199;28;20485;-76
2022/09/03 09:12:16;;;;;;;2.38;0.90;;;;;;;25.31;35.48;100848.81;5025441;28;20073;-76
2022/09/03 09:15:04;;;;;;;4.03;1.08;;;;;;;25.20;35.72;100863.00;5014882;28;20037;-74
2022/09/03 09:18:08;;;;;;;2.33;1.13;;;;;;;25.08;36.31;100859.72;4986462;28;20920;-75
2022/09/03 09:21:12;;;;;;;6.57;1.35;;;;;;;25.73;36.01;100855.22;5006023;28;20046;-75
2022/09/03 09:23:49;;;;;;;1.55;0.90;;;;;;;25.63;35.39;100859.41;5002533;28;20038;-73
2022/09/03 09:26:18;;;;;;;4.82;0.95;;;;;;;25.44;36.07;100861.66;5003308;28;20113;-75
2022/09/03 09:28:56;;;;;;;3.45;1.02;;;;;;;25.54;35.92;100860.94;5001622;28;20035;-75
2022/09/03 09:31:21;;;;;;;5.70;1.10;;;;;;;25.64;36.00;100857.56;5005033;28;20055;-75
2022/09/03 09:33:47;;;;;;;4.13;1.08;;;;;;;25.48;36.34;100847.88;4990164;28;20437;-76
2022/09/03 09:36:15;;;;;;;1.85;0.77;;;;;;;25.59;36.21;100847.69;5018617;28;20491;-76
2022/09/03 09:38:44;;;;;;;1.75;0.88;;;;;;;26.18;35.88;100837.94;5014364;28;20117;-76
2022/09/03 09:41:14;;;;;;;3.97;0.80;;;;;;;26.61;35.96;100841.31;5002590;28;20695;-75
2022/09/03 09:43:40;;;;;;;5.03;1.08;;;;;;;26.57;35.30;100835.69;5007705;28;20057;-75
2022/09/03 09:46:27;;;;;;;20.95;1.40;;;;;;;26.49;35.47;100843.41;4995745;28;20034;-76
2022/09/03 09:48:56;;;;;;;4.57;1.13;;;;;;;26.51;35.48;100835.97;5021903;28;20038;-75
2022/09/03 09:51:29;;;;;;;4.97;1.00;;;;;;;26.53;36.15;100839.94;5003128;28;20026;-77
2022/09/03 09:54:18;;;;;;;5.10;1.30;;;;;;;26.13;36.94;100840.59;5005078;28;20034;-75
2022/09/03 09:56:45;;;;;;;4.03;1.45;;;;;;;25.82;37.11;100849.19;5001064;28;20025;-75
2022/09/03 09:59:14;;;;;;;4.55;1.30;;;;;;;25.96;37.12;100846.91;5010839;28;20786;-75
2022/09/03 10:01:41;;;;;;;2.13;1.08;;;;;;;26.09;37.17;100847.47;5001549;28;20026;-76
2022/09/03 10:04:30;;;;;;;4.13;1.20;;;;;;;26.16;37.18;100845.38;5004289;28;20422;-77
2022/09/03 10:07:04;;;;;;;2.28;1.27;;;;;;;25.84;37.76;100852.38;5003811;28;20034;-76
2022/09/03 10:09:31;;;;;;;3.42;1.73;;;;;;;25.68;38.31;100856.00;4993845;28;20037;-76
2022/09/03 10:12:27;;;;;;;4.22;1.52;;;;;;;25.33;38.65;100851.22;5001674;28;20052;-76
2022/09/03 10:14:59;;;;;;;2.63;1.20;;;;;;;25.47;38.30;100848.91;4999619;28;20026;-75
2022/09/03 10:17:42;;;;;;;7.72;1.40;;;;;;;25.43;38.84;100854.75;4995133;28;20081;-77
2022/09/03 10:20:30;;;;;;;2.40;1.30;;;;;;;25.46;38.41;100853.44;4996646;28;20108;-76
2022/09/03 10:23:02;;;;;;;5.88;1.48;;;;;;;25.52;38.59;100847.09;5004301;28;20466;-77
2022/09/03 10:25:38;;;;;;;4.28;1.35;;;;;;;25.12;39.50;100852.88;4993848;28;20033;-76
2022/09/03 10:28:06;;;;;;;3.22;1.80;;;;;;;25.33;39.26;100854.66;5010074;28;20367;-77
2022/09/03 10:30:45;;;;;;;5.15;1.60;;;;;;;25.63;39.29;100847.97;4999491;28;20046;-77
2022/09/03 10:33:18;;;;;;;4.22;1.30;;;;;;;25.87;38.87;100844.94;4992629;28;20490;-77
2022/09/03 10:35:50;;;;;;;5.22;1.50;;;;;;;25.83;38.27;100848.13;5015557;28;20030;-75
2022/09/03 10:38:32;;;;;;;4.10;1.50;;;;;;;25.63;38.56;100850.63;5003654;28;20203;-76
2022/09/03 10:40:58;;;;;;;7.75;2.13;;;;;;;25.50;38.76;100854.53;4998075;28;20494;-74
2022/09/03 10:43:40;;;;;;;3.22;1.58;;;;;;;25.13;39.59;100863.22;5002625;28;20056;-77
2022/09/03 10:46:12;;;;;;;2.97;1.38;;;;;;;25.14;39.21;100850.75;5025678;28;20041;-78
2022/09/03 10:49:04;;;;;;;3.35;1.70;;;;;;;24.99;40.04;100857.50;5027713;28;20038;-75
2022/09/03 10:51:35;;;;;;;4.20;1.90;;;;;;;25.22;40.12;100859.06;5002128;28;20084;-76
2022/09/03 10:54:08;;;;;;;5.32;1.60;;;;;;;25.28;40.32;100857.28;4994888;28;20479;-76
2022/09/03 10:56:53;;;;;;;3.28;1.23;;;;;;;25.67;39.55;100850.94;5026403;28;20037;-75
2022/09/03 10:59:44;;;;;;;3.67;1.55;;;;;;;25.63;38.99;100850.63;4997330;28;20042;-75
2022/09/03 11:02:33;;;;;;;6.50;1.40;;;;;;;25.78;38.98;100852.59;5026835;28;20061;-73
2022/09/03 11:05:17;;;;;;;2.28;1.20;;;;;;;25.86;38.94;100846.00;5012401;28;20467;-74
2022/09/03 11:07:57;;;;;;;4.20;1.40;;;;;;;26.24;38.71;100852.88;4998713;28;20030;-75
2022/09/03 11:10:34;;;;;;;4.32;1.77;;;;;;;26.24;38.15;100844.91;4993888;28;20046;-76
2022/09/03 11:13:06;;;;;;;8.02;1.63;;;;;;;26.15;38.36;100841.94;5000838;28;20077;-76
2022/09/03 11:16:00;;;;;;;2.95;1.45;;;;;;;26.51;38.65;100847.38;4995036;28;20095;-77
2022/09/03 11:18:39;;;;;;;2.65;1.40;;;;;;;26.63;38.14;100839.19;5000044;28;20042;-76
2022/09/03 11:21:10;;;;;;;4.65;1.52;;;;;;;26.50;38.06;100850.28;4995558;28;20042;-78
2022/09/03 11:23:43;;;;;;;2.08;1.45;;;;;;;26.63;38.40;100844.50;5015773;28;20041;-76
2022/09/03 11:26:12;;;;;;;3.30;1.42;;;;;;;26.66;38.90;100844.00;4997093;28;20077;-75
2022/09/03 11:28:44;;;;;;;8.80;2.00;;;;;;;26.88;38.38;100833.13;4997674;28;20331;-78
2022/09/03 11:31:32;;;;;;;6.18;1.67;;;;;;;26.66;38.23;100837.88;5003520;28;20042;-76
2022/09/03 11:34:25;;;;;;;3.75;1.20;;;;;;;26.63;38.77;100828.56;4999970;28;20033;-76
2022/09/03 11:37:03;;;;;;;2.65;1.60;;;;;;;26.54;38.95;100832.75;5003299;28;20101;-75
2022/09/03 11:39:34;;;;;;;6.13;1.75;;;;;;;26.36;38.99;100828.72;5029233;28;20034;-76
2022/09/03 11:42:05;;;;;;;10.88;2.33;;;;;;;26.38;39.45;100821.28;4999588;28;20648;-75
2022/09/03 11:44:45;;;;;;;3.42;1.83;;;;;;;26.18;39.56;100822.00;4996599;28;20121;-75
2022/09/03 11:47:23;;;;;;;4.35;1.63;;;;;;;26.34;39.56;100810.38;5023806;28;20034;-76
2022/09/03 11:49:52;;;;;;;6.68;1.67;;;;;;;26.28;39.22;100818.63;5001272;28;20658;-75
2022/09/03 11:52:31;;;;;;;4.50;1.70;;;;;;;26.50;39.55;100821.84;5025261;28;20122;-77